sensor_id;sensor_type;location;lat;lon;timestamp;temperature;humidity
75925;DHT22;64604;44.752;37.674;2022-11-30T00:00:43;2.08;95.23
75925;DHT22;64604;44.752;37.674;2022-11-30T00:01:44;2.08;95.24
75925;DHT22;64604;44.752;37.674;2022-11-30T00:02:46;2.07;95.23
75925;DHT22;64604;44.752;37.674;2022-11-30T00:03:53;2.06;95.32
75925;DHT22;64604;44.752;37.674;2022-11-30T00:04:55;2.06;95.31
75925;DHT22;64604;44.752;37.674;2022-11-30T00:06:03;2.07;95.36
75925;DHT22;64604;44.752;37.674;2022-11-30T00:07:04;2.06;95.32
75925;DHT22;64604;44.752;37.674;2022-11-30T00:08:06;2.07;95.20
75925;DHT22;64604;44.752;37.674;2022-11-30T00:09:07;2.08;95.24
75925;DHT22;64604;44.752;37.674;2022-11-30T00:10:09;2.07;95.24
75925;DHT22;64604;44.752;37.674;2022-11-30T00:11:12;2.07;95.30
75925;DHT22;64604;44.752;37.674;2022-11-30T00:12:14;2.07;95.24
75925;DHT22;64604;44.752;37.674;2022-11-30T00:13:15;2.06;95.22
75925;DHT22;64604;44.752;37.674;2022-11-30T00:14:17;2.05;95.19
75925;DHT22;64604;44.752;37.674;2022-11-30T00:15:18;2.02;95.21
75925;DHT22;64604;44.752;37.674;2022-11-30T00:16:20;2.01;95.33
75925;DHT22;64604;44.752;37.674;2022-11-30T00:17:22;1.99;95.36
75925;DHT22;64604;44.752;37.674;2022-11-30T00:18:23;1.97;95.44
75925;DHT22;64604;44.752;37.674;2022-11-30T00:19:24;1.96;95.51
75925;DHT22;64604;44.752;37.674;2022-11-30T00:20:26;1.94;95.59
75925;DHT22;64604;44.752;37.674;2022-11-30T00:21:30;1.94;95.76
75925;DHT22;64604;44.752;37.674;2022-11-30T00:22:31;1.94;95.81
75925;DHT22;64604;44.752;37.674;2022-11-30T00:23:34;1.93;95.80
75925;DHT22;64604;44.752;37.674;2022-11-30T00:24:35;1.92;95.90
75925;DHT22;64604;44.752;37.674;2022-11-30T00:25:37;1.91;95.92
75925;DHT22;64604;44.752;37.674;2022-11-30T00:26:38;1.93;95.88
75925;DHT22;64604;44.752;37.674;2022-11-30T00:27:39;1.95;95.91
75925;DHT22;64604;44.752;37.674;2022-11-30T00:28:41;1.96;95.81
75925;DHT22;64604;44.752;37.674;2022-11-30T00:29:43;1.96;95.75
75925;DHT22;64604;44.752;37.674;2022-11-30T00:30:45;1.96;95.78
75925;DHT22;64604;44.752;37.674;2022-11-30T00:31:46;1.97;95.77
75925;DHT22;64604;44.752;37.674;2022-11-30T00:32:47;1.97;95.73
75925;DHT22;64604;44.752;37.674;2022-11-30T00:33:49;1.96;95.79
75925;DHT22;64604;44.752;37.674;2022-11-30T00:34:50;1.97;95.82
75925;DHT22;64604;44.752;37.674;2022-11-30T00:35:59;1.96;95.72
75925;DHT22;64604;44.752;37.674;2022-11-30T00:37:02;1.97;95.80
75925;DHT22;64604;44.752;37.674;2022-11-30T00:38:03;1.97;95.77
75925;DHT22;64604;44.752;37.674;2022-11-30T00:39:05;1.96;95.78
75925;DHT22;64604;44.752;37.674;2022-11-30T00:40:06;1.96;95.74
75925;DHT22;64604;44.752;37.674;2022-11-30T00:41:08;1.96;95.75
75925;DHT22;64604;44.752;37.674;2022-11-30T00:42:09;1.96;95.77
75925;DHT22;64604;44.752;37.674;2022-11-30T00:43:11;1.97;95.81
75925;DHT22;64604;44.752;37.674;2022-11-30T00:44:12;1.97;95.81
75925;DHT22;64604;44.752;37.674;2022-11-30T00:45:14;1.97;95.74
75925;DHT22;64604;44.752;37.674;2022-11-30T00:46:15;1.96;95.70
75925;DHT22;64604;44.752;37.674;2022-11-30T00:47:17;1.96;95.80
75925;DHT22;64604;44.752;37.674;2022-11-30T00:48:18;1.95;95.85
75925;DHT22;64604;44.752;37.674;2022-11-30T00:49:20;1.94;95.84
75925;DHT22;64604;44.752;37.674;2022-11-30T00:50:21;1.94;95.89
75925;DHT22;64604;44.752;37.674;2022-11-30T00:51:22;1.94;95.92
75925;DHT22;64604;44.752;37.674;2022-11-30T00:52:24;1.95;95.95
75925;DHT22;64604;44.752;37.674;2022-11-30T00:53:26;1.94;95.94
75925;DHT22;64604;44.752;37.674;2022-11-30T00:54:27;1.95;95.96
75925;DHT22;64604;44.752;37.674;2022-11-30T00:55:28;1.96;95.94
75925;DHT22;64604;44.752;37.674;2022-11-30T00:56:31;1.95;95.97
75925;DHT22;64604;44.752;37.674;2022-11-30T00:57:33;1.95;95.96
75925;DHT22;64604;44.752;37.674;2022-11-30T00:58:34;1.95;95.95
75925;DHT22;64604;44.752;37.674;2022-11-30T00:59:36;1.94;95.91
75925;DHT22;64604;44.752;37.674;2022-11-30T01:00:37;1.94;95.97
75925;DHT22;64604;44.752;37.674;2022-11-30T01:01:39;1.93;96.08
75925;DHT22;64604;44.752;37.674;2022-11-30T01:02:40;1.93;96.04
75925;DHT22;64604;44.752;37.674;2022-11-30T01:03:41;1.91;96.00
75925;DHT22;64604;44.752;37.674;2022-11-30T01:04:43;1.91;96.05
75925;DHT22;64604;44.752;37.674;2022-11-30T01:05:44;1.91;96.13
75925;DHT22;64604;44.752;37.674;2022-11-30T01:06:46;1.91;96.12
75925;DHT22;64604;44.752;37.674;2022-11-30T01:07:47;1.90;96.21
75925;DHT22;64604;44.752;37.674;2022-11-30T01:08:48;1.90;96.26
75925;DHT22;64604;44.752;37.674;2022-11-30T01:09:50;1.90;96.26
75925;DHT22;64604;44.752;37.674;2022-11-30T01:10:51;1.91;96.26
75925;DHT22;64604;44.752;37.674;2022-11-30T01:11:54;1.93;96.17
75925;DHT22;64604;44.752;37.674;2022-11-30T01:12:56;1.94;96.16
75925;DHT22;64604;44.752;37.674;2022-11-30T01:13:58;1.93;96.07
75925;DHT22;64604;44.752;37.674;2022-11-30T01:15:00;1.93;96.06
75925;DHT22;64604;44.752;37.674;2022-11-30T01:16:10;1.93;96.04
75925;DHT22;64604;44.752;37.674;2022-11-30T01:17:12;1.92;96.12
75925;DHT22;64604;44.752;37.674;2022-11-30T01:18:14;1.92;96.12
75925;DHT22;64604;44.752;37.674;2022-11-30T01:19:15;1.93;96.12
75925;DHT22;64604;44.752;37.674;2022-11-30T01:20:17;1.94;96.05
75925;DHT22;64604;44.752;37.674;2022-11-30T01:21:21;1.92;96.13
75925;DHT22;64604;44.752;37.674;2022-11-30T01:22:22;1.94;96.07
75925;DHT22;64604;44.752;37.674;2022-11-30T01:23:24;1.93;96.02
75925;DHT22;64604;44.752;37.674;2022-11-30T01:24:25;1.95;96.01
75925;DHT22;64604;44.752;37.674;2022-11-30T01:25:26;1.93;96.10
75925;DHT22;64604;44.752;37.674;2022-11-30T01:26:28;1.93;96.13
75925;DHT22;64604;44.752;37.674;2022-11-30T01:27:29;1.91;96.26
75925;DHT22;64604;44.752;37.674;2022-11-30T01:28:31;1.92;96.29
75925;DHT22;64604;44.752;37.674;2022-11-30T01:29:33;1.93;96.29
75925;DHT22;64604;44.752;37.674;2022-11-30T01:30:34;1.95;96.20
75925;DHT22;64604;44.752;37.674;2022-11-30T01:31:35;1.95;96.17
75925;DHT22;64604;44.752;37.674;2022-11-30T01:32:37;1.95;96.19
75925;DHT22;64604;44.752;37.674;2022-11-30T01:33:39;1.97;96.17
75925;DHT22;64604;44.752;37.674;2022-11-30T01:34:40;1.97;96.10
75925;DHT22;64604;44.752;37.674;2022-11-30T01:35:42;1.96;96.13
75925;DHT22;64604;44.752;37.674;2022-11-30T01:36:44;1.96;96.14
75925;DHT22;64604;44.752;37.674;2022-11-30T01:37:45;1.94;96.17
75925;DHT22;64604;44.752;37.674;2022-11-30T01:38:49;1.95;96.22
75925;DHT22;64604;44.752;37.674;2022-11-30T01:39:51;1.94;96.36
75925;DHT22;64604;44.752;37.674;2022-11-30T01:40:52;1.93;96.34
75925;DHT22;64604;44.752;37.674;2022-11-30T01:41:53;1.93;96.38
75925;DHT22;64604;44.752;37.674;2022-11-30T01:42:55;1.93;96.37
75925;DHT22;64604;44.752;37.674;2022-11-30T01:45:17;1.90;96.49
75925;DHT22;64604;44.752;37.674;2022-11-30T01:47:37;1.90;96.64
75925;DHT22;64604;44.752;37.674;2022-11-30T01:48:40;1.88;96.65
75925;DHT22;64604;44.752;37.674;2022-11-30T01:49:47;1.86;96.65
75925;DHT22;64604;44.752;37.674;2022-11-30T01:50:50;1.86;96.68
75925;DHT22;64604;44.752;37.674;2022-11-30T01:53:36;1.85;96.84
75925;DHT22;64604;44.752;37.674;2022-11-30T01:54:42;1.85;96.84
75925;DHT22;64604;44.752;37.674;2022-11-30T01:55:46;1.85;96.85
75925;DHT22;64604;44.752;37.674;2022-11-30T01:56:52;1.85;96.88
75925;DHT22;64604;44.752;37.674;2022-11-30T01:57:56;1.85;96.87
75925;DHT22;64604;44.752;37.674;2022-11-30T01:58:59;1.86;96.85
75925;DHT22;64604;44.752;37.674;2022-11-30T02:00:04;1.87;96.94
75925;DHT22;64604;44.752;37.674;2022-11-30T02:01:14;1.85;96.92
75925;DHT22;64604;44.752;37.674;2022-11-30T02:02:19;1.86;96.97
75925;DHT22;64604;44.752;37.674;2022-11-30T02:04:41;1.86;97.00
75925;DHT22;64604;44.752;37.674;2022-11-30T02:05:43;1.87;97.04
75925;DHT22;64604;44.752;37.674;2022-11-30T02:06:45;1.86;97.02
75925;DHT22;64604;44.752;37.674;2022-11-30T02:07:47;1.86;97.01
75925;DHT22;64604;44.752;37.674;2022-11-30T02:08:49;1.86;97.03
75925;DHT22;64604;44.752;37.674;2022-11-30T02:09:51;1.85;97.08
75925;DHT22;64604;44.752;37.674;2022-11-30T02:10:56;1.85;97.08
75925;DHT22;64604;44.752;37.674;2022-11-30T02:11:59;1.86;97.13
75925;DHT22;64604;44.752;37.674;2022-11-30T02:14:22;1.87;97.08
75925;DHT22;64604;44.752;37.674;2022-11-30T02:15:27;1.87;97.01
75925;DHT22;64604;44.752;37.674;2022-11-30T02:18:12;1.84;97.18
75925;DHT22;64604;44.752;37.674;2022-11-30T02:25:17;1.82;97.26
75925;DHT22;64604;44.752;37.674;2022-11-30T02:29:09;1.84;97.34
75925;DHT22;64604;44.752;37.674;2022-11-30T02:30:15;1.83;97.23
75925;DHT22;64604;44.752;37.674;2022-11-30T02:31:20;1.82;97.39
75925;DHT22;64604;44.752;37.674;2022-11-30T02:32:28;1.82;97.35
75925;DHT22;64604;44.752;37.674;2022-11-30T02:33:32;1.82;97.34
75925;DHT22;64604;44.752;37.674;2022-11-30T02:34:35;1.81;97.38
75925;DHT22;64604;44.752;37.674;2022-11-30T02:35:41;1.80;97.34
75925;DHT22;64604;44.752;37.674;2022-11-30T02:36:45;1.80;97.31
75925;DHT22;64604;44.752;37.674;2022-11-30T02:37:47;1.80;97.26
75925;DHT22;64604;44.752;37.674;2022-11-30T02:38:51;1.79;97.39
75925;DHT22;64604;44.752;37.674;2022-11-30T02:39:52;1.79;97.39
75925;DHT22;64604;44.752;37.674;2022-11-30T02:40:54;1.80;97.47
75925;DHT22;64604;44.752;37.674;2022-11-30T02:41:55;1.79;97.55
75925;DHT22;64604;44.752;37.674;2022-11-30T02:42:58;1.79;97.58
75925;DHT22;64604;44.752;37.674;2022-11-30T02:44:01;1.78;97.59
75925;DHT22;64604;44.752;37.674;2022-11-30T02:45:05;1.80;97.52
75925;DHT22;64604;44.752;37.674;2022-11-30T02:47:01;1.78;97.63
75925;DHT22;64604;44.752;37.674;2022-11-30T02:47:56;1.79;97.68
75925;DHT22;64604;44.752;37.674;2022-11-30T02:49:05;1.79;97.66
75925;DHT22;64604;44.752;37.674;2022-11-30T02:50:23;1.78;97.60
75925;DHT22;64604;44.752;37.674;2022-11-30T02:51:27;1.78;97.61
75925;DHT22;64604;44.752;37.674;2022-11-30T02:52:31;1.80;97.64
75925;DHT22;64604;44.752;37.674;2022-11-30T02:53:32;1.79;97.56
75925;DHT22;64604;44.752;37.674;2022-11-30T02:54:34;1.77;97.61
75925;DHT22;64604;44.752;37.674;2022-11-30T02:55:36;1.79;97.57
75925;DHT22;64604;44.752;37.674;2022-11-30T02:56:37;1.80;97.54
75925;DHT22;64604;44.752;37.674;2022-11-30T02:57:38;1.78;97.57
75925;DHT22;64604;44.752;37.674;2022-11-30T02:58:40;1.78;97.61
75925;DHT22;64604;44.752;37.674;2022-11-30T02:59:41;1.78;97.66
75925;DHT22;64604;44.752;37.674;2022-11-30T03:00:43;1.78;97.68
75925;DHT22;64604;44.752;37.674;2022-11-30T03:01:45;1.77;97.66
75925;DHT22;64604;44.752;37.674;2022-11-30T03:02:46;1.78;97.64
75925;DHT22;64604;44.752;37.674;2022-11-30T03:03:48;1.77;97.65
75925;DHT22;64604;44.752;37.674;2022-11-30T03:04:49;1.78;97.60
75925;DHT22;64604;44.752;37.674;2022-11-30T03:05:51;1.78;97.55
75925;DHT22;64604;44.752;37.674;2022-11-30T03:06:52;1.78;97.66
75925;DHT22;64604;44.752;37.674;2022-11-30T03:07:53;1.78;97.63
75925;DHT22;64604;44.752;37.674;2022-11-30T03:08:55;1.78;97.67
75925;DHT22;64604;44.752;37.674;2022-11-30T03:09:56;1.79;97.68
75925;DHT22;64604;44.752;37.674;2022-11-30T03:11:01;1.80;97.68
75925;DHT22;64604;44.752;37.674;2022-11-30T03:12:03;1.79;97.70
75925;DHT22;64604;44.752;37.674;2022-11-30T03:13:04;1.80;97.67
75925;DHT22;64604;44.752;37.674;2022-11-30T03:14:06;1.81;97.59
75925;DHT22;64604;44.752;37.674;2022-11-30T03:15:07;1.81;97.65
75925;DHT22;64604;44.752;37.674;2022-11-30T03:16:11;1.80;97.54
75925;DHT22;64604;44.752;37.674;2022-11-30T03:17:13;1.80;97.56
75925;DHT22;64604;44.752;37.674;2022-11-30T03:18:14;1.78;97.55
75925;DHT22;64604;44.752;37.674;2022-11-30T03:19:15;1.79;97.58
75925;DHT22;64604;44.752;37.674;2022-11-30T03:20:17;1.76;97.57
75925;DHT22;64604;44.752;37.674;2022-11-30T03:21:18;1.78;97.67
75925;DHT22;64604;44.752;37.674;2022-11-30T03:22:19;1.79;97.68
75925;DHT22;64604;44.752;37.674;2022-11-30T03:23:21;1.78;97.61
75925;DHT22;64604;44.752;37.674;2022-11-30T03:24:22;1.78;97.67
75925;DHT22;64604;44.752;37.674;2022-11-30T03:25:24;1.79;97.74
75925;DHT22;64604;44.752;37.674;2022-11-30T03:26:25;1.79;97.71
75925;DHT22;64604;44.752;37.674;2022-11-30T03:27:26;1.81;97.69
75925;DHT22;64604;44.752;37.674;2022-11-30T03:28:28;1.79;97.72
75925;DHT22;64604;44.752;37.674;2022-11-30T03:29:29;1.80;97.84
75925;DHT22;64604;44.752;37.674;2022-11-30T03:30:31;1.80;97.80
75925;DHT22;64604;44.752;37.674;2022-11-30T03:31:32;1.82;97.84
75925;DHT22;64604;44.752;37.674;2022-11-30T03:32:34;1.82;97.78
75925;DHT22;64604;44.752;37.674;2022-11-30T03:33:35;1.81;97.77
75925;DHT22;64604;44.752;37.674;2022-11-30T03:34:36;1.81;97.82
75925;DHT22;64604;44.752;37.674;2022-11-30T03:35:38;1.82;97.81
75925;DHT22;64604;44.752;37.674;2022-11-30T03:36:39;1.82;97.83
75925;DHT22;64604;44.752;37.674;2022-11-30T03:37:40;1.82;97.81
75925;DHT22;64604;44.752;37.674;2022-11-30T03:38:42;1.84;97.74
75925;DHT22;64604;44.752;37.674;2022-11-30T03:39:43;1.83;97.78
75925;DHT22;64604;44.752;37.674;2022-11-30T03:40:45;1.84;97.83
75925;DHT22;64604;44.752;37.674;2022-11-30T03:41:50;1.85;97.81
75925;DHT22;64604;44.752;37.674;2022-11-30T03:42:52;1.85;97.74
75925;DHT22;64604;44.752;37.674;2022-11-30T03:43:54;1.86;97.78
75925;DHT22;64604;44.752;37.674;2022-11-30T03:44:55;1.90;97.84
75925;DHT22;64604;44.752;37.674;2022-11-30T03:45:57;1.87;97.81
75925;DHT22;64604;44.752;37.674;2022-11-30T03:46:58;1.88;97.77
75925;DHT22;64604;44.752;37.674;2022-11-30T03:47:59;1.88;97.79
75925;DHT22;64604;44.752;37.674;2022-11-30T03:49:01;1.90;97.72
75925;DHT22;64604;44.752;37.674;2022-11-30T03:50:02;1.92;97.76
75925;DHT22;64604;44.752;37.674;2022-11-30T03:51:04;1.90;97.75
75925;DHT22;64604;44.752;37.674;2022-11-30T03:52:05;1.92;97.78
75925;DHT22;64604;44.752;37.674;2022-11-30T03:53:07;1.93;97.75
75925;DHT22;64604;44.752;37.674;2022-11-30T03:54:08;1.92;97.74
75925;DHT22;64604;44.752;37.674;2022-11-30T03:55:09;1.94;97.74
75925;DHT22;64604;44.752;37.674;2022-11-30T03:56:11;1.95;97.71
75925;DHT22;64604;44.752;37.674;2022-11-30T03:57:14;1.95;97.74
75925;DHT22;64604;44.752;37.674;2022-11-30T03:58:15;1.96;97.72
75925;DHT22;64604;44.752;37.674;2022-11-30T03:59:17;1.97;97.70
75925;DHT22;64604;44.752;37.674;2022-11-30T04:00:19;1.97;97.66
75925;DHT22;64604;44.752;37.674;2022-11-30T04:01:48;1.97;97.72
75925;DHT22;64604;44.752;37.674;2022-11-30T04:02:50;1.97;97.68
75925;DHT22;64604;44.752;37.674;2022-11-30T04:03:52;1.97;97.71
75925;DHT22;64604;44.752;37.674;2022-11-30T04:04:53;1.98;97.73
75925;DHT22;64604;44.752;37.674;2022-11-30T04:05:55;1.97;97.77
75925;DHT22;64604;44.752;37.674;2022-11-30T04:06:57;1.98;97.76
75925;DHT22;64604;44.752;37.674;2022-11-30T04:07:58;1.96;97.61
75925;DHT22;64604;44.752;37.674;2022-11-30T04:08:59;1.96;97.72
75925;DHT22;64604;44.752;37.674;2022-11-30T04:10:01;1.95;97.79
75925;DHT22;64604;44.752;37.674;2022-11-30T04:11:03;1.95;97.84
75925;DHT22;64604;44.752;37.674;2022-11-30T04:12:04;1.95;97.89
75925;DHT22;64604;44.752;37.674;2022-11-30T04:13:06;1.96;97.90
75925;DHT22;64604;44.752;37.674;2022-11-30T04:14:08;1.96;97.87
75925;DHT22;64604;44.752;37.674;2022-11-30T04:15:10;1.97;97.78
75925;DHT22;64604;44.752;37.674;2022-11-30T04:16:11;1.97;97.81
75925;DHT22;64604;44.752;37.674;2022-11-30T04:17:12;1.97;97.90
75925;DHT22;64604;44.752;37.674;2022-11-30T04:18:14;1.98;97.91
75925;DHT22;64604;44.752;37.674;2022-11-30T04:19:16;1.98;97.86
75925;DHT22;64604;44.752;37.674;2022-11-30T04:20:17;1.98;97.78
75925;DHT22;64604;44.752;37.674;2022-11-30T04:21:20;1.99;97.82
75925;DHT22;64604;44.752;37.674;2022-11-30T04:22:21;1.99;97.81
75925;DHT22;64604;44.752;37.674;2022-11-30T04:23:23;1.97;97.84
75925;DHT22;64604;44.752;37.674;2022-11-30T04:24:25;1.98;97.96
75925;DHT22;64604;44.752;37.674;2022-11-30T04:25:26;1.99;97.95
75925;DHT22;64604;44.752;37.674;2022-11-30T04:26:28;1.98;97.92
75925;DHT22;64604;44.752;37.674;2022-11-30T04:27:29;2.00;97.89
75925;DHT22;64604;44.752;37.674;2022-11-30T04:28:30;2.01;97.83
75925;DHT22;64604;44.752;37.674;2022-11-30T04:29:32;2.01;97.78
75925;DHT22;64604;44.752;37.674;2022-11-30T04:30:34;2.01;97.75
75925;DHT22;64604;44.752;37.674;2022-11-30T04:31:35;2.02;97.88
75925;DHT22;64604;44.752;37.674;2022-11-30T04:32:37;2.03;97.85
75925;DHT22;64604;44.752;37.674;2022-11-30T04:33:38;2.05;97.87
75925;DHT22;64604;44.752;37.674;2022-11-30T04:34:40;2.07;97.84
75925;DHT22;64604;44.752;37.674;2022-11-30T04:35:46;2.08;97.85
75925;DHT22;64604;44.752;37.674;2022-11-30T04:36:48;2.08;97.87
75925;DHT22;64604;44.752;37.674;2022-11-30T04:37:49;2.10;97.86
75925;DHT22;64604;44.752;37.674;2022-11-30T04:38:51;2.10;97.84
75925;DHT22;64604;44.752;37.674;2022-11-30T04:39:52;2.10;97.78
75925;DHT22;64604;44.752;37.674;2022-11-30T04:40:54;2.12;97.73
75925;DHT22;64604;44.752;37.674;2022-11-30T04:41:55;2.12;97.67
75925;DHT22;64604;44.752;37.674;2022-11-30T04:42:57;2.11;97.65
75925;DHT22;64604;44.752;37.674;2022-11-30T04:43:58;2.12;97.68
75925;DHT22;64604;44.752;37.674;2022-11-30T04:44:59;2.13;97.54
75925;DHT22;64604;44.752;37.674;2022-11-30T04:46:01;2.13;97.55
75925;DHT22;64604;44.752;37.674;2022-11-30T04:47:02;2.14;97.58
75925;DHT22;64604;44.752;37.674;2022-11-30T04:48:04;2.14;97.60
75925;DHT22;64604;44.752;37.674;2022-11-30T04:49:06;2.14;97.58
75925;DHT22;64604;44.752;37.674;2022-11-30T04:50:08;2.14;97.52
75925;DHT22;64604;44.752;37.674;2022-11-30T04:51:10;2.15;97.56
75925;DHT22;64604;44.752;37.674;2022-11-30T04:52:11;2.16;97.50
75925;DHT22;64604;44.752;37.674;2022-11-30T04:53:12;2.16;97.54
75925;DHT22;64604;44.752;37.674;2022-11-30T04:57:30;2.16;97.49
75925;DHT22;64604;44.752;37.674;2022-11-30T04:58:32;2.20;97.53
75925;DHT22;64604;44.752;37.674;2022-11-30T04:59:33;2.22;97.43
75925;DHT22;64604;44.752;37.674;2022-11-30T05:00:35;2.25;97.31
75925;DHT22;64604;44.752;37.674;2022-11-30T05:01:36;2.26;97.20
75925;DHT22;64604;44.752;37.674;2022-11-30T05:02:38;2.26;97.18
75925;DHT22;64604;44.752;37.674;2022-11-30T05:03:39;2.27;97.10
75925;DHT22;64604;44.752;37.674;2022-11-30T05:04:41;2.29;97.03
75925;DHT22;64604;44.752;37.674;2022-11-30T05:05:42;2.29;96.99
75925;DHT22;64604;44.752;37.674;2022-11-30T05:06:44;2.28;96.99
75925;DHT22;64604;44.752;37.674;2022-11-30T05:07:57;2.28;96.91
75925;DHT22;64604;44.752;37.674;2022-11-30T05:08:59;2.28;97.00
75925;DHT22;64604;44.752;37.674;2022-11-30T05:10:01;2.30;96.97
75925;DHT22;64604;44.752;37.674;2022-11-30T05:11:02;2.30;96.89
75925;DHT22;64604;44.752;37.674;2022-11-30T05:12:04;2.31;96.87
75925;DHT22;64604;44.752;37.674;2022-11-30T05:13:05;2.34;96.88
75925;DHT22;64604;44.752;37.674;2022-11-30T05:14:07;2.36;96.75
75925;DHT22;64604;44.752;37.674;2022-11-30T05:15:08;2.35;96.74
75925;DHT22;64604;44.752;37.674;2022-11-30T05:16:10;2.39;96.71
75925;DHT22;64604;44.752;37.674;2022-11-30T05:17:11;2.38;96.65
75925;DHT22;64604;44.752;37.674;2022-11-30T05:18:13;2.40;96.61
75925;DHT22;64604;44.752;37.674;2022-11-30T05:19:15;2.42;96.59
75925;DHT22;64604;44.752;37.674;2022-11-30T05:20:17;2.43;96.54
75925;DHT22;64604;44.752;37.674;2022-11-30T05:21:18;2.45;96.50
75925;DHT22;64604;44.752;37.674;2022-11-30T05:22:20;2.49;96.42
75925;DHT22;64604;44.752;37.674;2022-11-30T05:23:21;2.49;96.36
75925;DHT22;64604;44.752;37.674;2022-11-30T05:24:22;2.50;96.35
75925;DHT22;64604;44.752;37.674;2022-11-30T05:25:24;2.52;96.28
75925;DHT22;64604;44.752;37.674;2022-11-30T05:26:25;2.52;96.10
75925;DHT22;64604;44.752;37.674;2022-11-30T05:27:26;2.54;96.11
75925;DHT22;64604;44.752;37.674;2022-11-30T05:28:28;2.56;96.07
75925;DHT22;64604;44.752;37.674;2022-11-30T05:29:29;2.56;95.98
75925;DHT22;64604;44.752;37.674;2022-11-30T05:30:31;2.58;95.88
75925;DHT22;64604;44.752;37.674;2022-11-30T05:31:32;2.57;95.87
75925;DHT22;64604;44.752;37.674;2022-11-30T05:32:34;2.59;95.86
75925;DHT22;64604;44.752;37.674;2022-11-30T05:33:35;2.60;95.81
75925;DHT22;64604;44.752;37.674;2022-11-30T05:34:37;2.61;95.76
75925;DHT22;64604;44.752;37.674;2022-11-30T05:35:38;2.64;95.70
75925;DHT22;64604;44.752;37.674;2022-11-30T05:36:39;2.67;95.62
75925;DHT22;64604;44.752;37.674;2022-11-30T05:37:41;2.70;95.59
75925;DHT22;64604;44.752;37.674;2022-11-30T05:38:43;2.74;95.46
75925;DHT22;64604;44.752;37.674;2022-11-30T05:39:44;2.76;95.36
75925;DHT22;64604;44.752;37.674;2022-11-30T05:40:46;2.81;95.21
75925;DHT22;64604;44.752;37.674;2022-11-30T05:41:47;2.83;94.91
75925;DHT22;64604;44.752;37.674;2022-11-30T05:42:54;2.85;94.92
75925;DHT22;64604;44.752;37.674;2022-11-30T05:43:56;2.86;94.77
75925;DHT22;64604;44.752;37.674;2022-11-30T05:44:58;2.88;94.78
75925;DHT22;64604;44.752;37.674;2022-11-30T05:46:00;2.91;94.64
75925;DHT22;64604;44.752;37.674;2022-11-30T05:47:02;2.94;94.57
75925;DHT22;64604;44.752;37.674;2022-11-30T05:48:03;2.96;94.56
75925;DHT22;64604;44.752;37.674;2022-11-30T05:49:05;2.98;94.58
75925;DHT22;64604;44.752;37.674;2022-11-30T05:50:07;3.00;94.29
75925;DHT22;64604;44.752;37.674;2022-11-30T05:51:13;3.05;94.02
75925;DHT22;64604;44.752;37.674;2022-11-30T05:52:15;3.12;93.86
75925;DHT22;64604;44.752;37.674;2022-11-30T05:53:16;3.13;93.57
75925;DHT22;64604;44.752;37.674;2022-11-30T05:54:18;3.16;93.54
75925;DHT22;64604;44.752;37.674;2022-11-30T05:55:19;3.20;93.50
75925;DHT22;64604;44.752;37.674;2022-11-30T05:56:21;3.21;93.33
75925;DHT22;64604;44.752;37.674;2022-11-30T05:57:22;3.25;92.99
75925;DHT22;64604;44.752;37.674;2022-11-30T05:58:24;3.29;93.21
75925;DHT22;64604;44.752;37.674;2022-11-30T05:59:25;3.32;93.04
75925;DHT22;64604;44.752;37.674;2022-11-30T06:00:26;3.35;93.09
75925;DHT22;64604;44.752;37.674;2022-11-30T06:01:28;3.40;92.98
75925;DHT22;64604;44.752;37.674;2022-11-30T06:02:29;3.44;92.81
75925;DHT22;64604;44.752;37.674;2022-11-30T06:03:32;3.48;92.53
75925;DHT22;64604;44.752;37.674;2022-11-30T06:04:34;3.53;92.29
75925;DHT22;64604;44.752;37.674;2022-11-30T06:05:35;3.55;91.76
75925;DHT22;64604;44.752;37.674;2022-11-30T06:06:37;3.59;91.87
75925;DHT22;64604;44.752;37.674;2022-11-30T06:07:39;3.64;91.72
75925;DHT22;64604;44.752;37.674;2022-11-30T06:08:41;3.68;91.60
75925;DHT22;64604;44.752;37.674;2022-11-30T06:09:43;3.74;91.44
75925;DHT22;64604;44.752;37.674;2022-11-30T06:10:45;3.75;91.47
75925;DHT22;64604;44.752;37.674;2022-11-30T06:11:46;3.77;91.50
75925;DHT22;64604;44.752;37.674;2022-11-30T06:12:47;3.82;91.12
75925;DHT22;64604;44.752;37.674;2022-11-30T06:13:49;3.84;90.92
75925;DHT22;64604;44.752;37.674;2022-11-30T06:14:50;3.87;90.58
75925;DHT22;64604;44.752;37.674;2022-11-30T06:15:52;3.88;90.57
75925;DHT22;64604;44.752;37.674;2022-11-30T06:16:53;3.90;90.67
75925;DHT22;64604;44.752;37.674;2022-11-30T06:17:54;3.92;90.28
75925;DHT22;64604;44.752;37.674;2022-11-30T06:18:56;3.94;90.45
75925;DHT22;64604;44.752;37.674;2022-11-30T06:19:57;4.01;90.58
75925;DHT22;64604;44.752;37.674;2022-11-30T06:21:07;4.04;90.11
75925;DHT22;64604;44.752;37.674;2022-11-30T06:22:09;4.08;89.95
75925;DHT22;64604;44.752;37.674;2022-11-30T06:23:10;4.12;89.92
75925;DHT22;64604;44.752;37.674;2022-11-30T06:24:12;4.14;89.29
75925;DHT22;64604;44.752;37.674;2022-11-30T06:25:13;4.15;89.37
75925;DHT22;64604;44.752;37.674;2022-11-30T06:26:15;4.16;89.01
75925;DHT22;64604;44.752;37.674;2022-11-30T06:27:16;4.18;89.48
75925;DHT22;64604;44.752;37.674;2022-11-30T06:28:17;4.21;89.18
75925;DHT22;64604;44.752;37.674;2022-11-30T06:29:19;4.26;89.37
75925;DHT22;64604;44.752;37.674;2022-11-30T06:30:20;4.30;89.09
75925;DHT22;64604;44.752;37.674;2022-11-30T06:31:22;4.32;88.87
75925;DHT22;64604;44.752;37.674;2022-11-30T06:32:23;4.38;89.04
75925;DHT22;64604;44.752;37.674;2022-11-30T06:33:24;4.43;88.90
75925;DHT22;64604;44.752;37.674;2022-11-30T06:34:26;4.48;88.32
75925;DHT22;64604;44.752;37.674;2022-11-30T06:35:27;4.47;88.26
75925;DHT22;64604;44.752;37.674;2022-11-30T06:36:29;4.50;88.20
75925;DHT22;64604;44.752;37.674;2022-11-30T06:37:33;4.53;88.16
75925;DHT22;64604;44.752;37.674;2022-11-30T06:38:35;4.54;87.96
75925;DHT22;64604;44.752;37.674;2022-11-30T06:39:36;4.58;87.79
75925;DHT22;64604;44.752;37.674;2022-11-30T06:40:38;4.58;87.28
75925;DHT22;64604;44.752;37.674;2022-11-30T06:41:39;4.61;87.86
75925;DHT22;64604;44.752;37.674;2022-11-30T06:42:41;4.63;87.63
75925;DHT22;64604;44.752;37.674;2022-11-30T06:43:42;4.64;87.67
75925;DHT22;64604;44.752;37.674;2022-11-30T06:44:44;4.64;87.34
75925;DHT22;64604;44.752;37.674;2022-11-30T06:45:46;4.68;87.83
75925;DHT22;64604;44.752;37.674;2022-11-30T06:46:47;4.75;87.62
75925;DHT22;64604;44.752;37.674;2022-11-30T06:47:48;4.79;87.08
75925;DHT22;64604;44.752;37.674;2022-11-30T06:48:50;4.80;87.17
75925;DHT22;64604;44.752;37.674;2022-11-30T06:49:51;4.82;86.67
75925;DHT22;64604;44.752;37.674;2022-11-30T06:50:53;4.82;86.79
75925;DHT22;64604;44.752;37.674;2022-11-30T06:51:55;4.80;86.32
75925;DHT22;64604;44.752;37.674;2022-11-30T06:52:56;4.79;86.34
75925;DHT22;64604;44.752;37.674;2022-11-30T06:53:57;4.82;86.90